This is the latest recevied weather packets stored in our database for station/object KF4ZNO-13. If no packets are shown the sender has not sent any weather packets the latest 10 day(s).
| Time | Temp. | Humidity | Pressure | Rain* | Wind** | Luminosity | Snow |
|---|---|---|---|---|---|---|---|
| 1777389019 | 26.67° C | 73% | 1022 hPa | 0 mm | - | - | - |
| 1777386019 | 24.44° C | 81% | 1021.7 hPa | 0 mm | - | - | - |
| 1777385419 | 23.89° C | 82% | 1021.8 hPa | 0 mm | - | - | - |
| 1777381219 | 20.56° C | 92% | 1021.6 hPa | 0 mm | - | - | - |
| 1777378219 | 18.89° C | 92% | 1021.4 hPa | 0 mm | - | - | - |
| 1777374019 | 18.33° C | 92% | 1020.7 hPa | 0 mm | - | - | - |
| 1777371018 | 18.33° C | 92% | 1020.6 hPa | 0 mm | - | - | - |
| 1777370419 | 17.78° C | 92% | 1020.3 hPa | 0 mm | - | - | - |
| 1777369819 | 18.33° C | 92% | 1020 hPa | 0 mm | - | - | - |
| 1777358420 | 18.89° C | 91% | 1019.7 hPa | 0 mm | - | - | - |
| 1777356620 | 18.89° C | 91% | 1019.7 hPa | 0 mm | - | - | - |
| 1777355421 | 18.89° C | 91% | 1019.6 hPa | 0 mm | - | - | - |
| 1777354839 | 18.89° C | 91% | 1019.6 hPa | 0 mm | - | - | - |
| 1777347620 | 20° C | 90% | 1019.8 hPa | 0 mm | - | - | - |
| 1777345820 | 20.56° C | 89% | 1019.7 hPa | 0 mm | - | - | - |
| 1777343419 | 21.11° C | 87% | 1019.9 hPa | 0 mm | - | - | - |
| 1777342820 | 21.67° C | 87% | 1019.9 hPa | 0 mm | - | - | - |
| 1777339819 | 22.78° C | 85% | 1019.7 hPa | 0 mm | - | - | - |
| 1777335619 | 24.44° C | 78% | 1019.1 hPa | 0 mm | - | - | - |
| 1777332619 | 26.11° C | 68% | 1019 hPa | 0 mm | - | - | - |
| 1777330219 | 27.22° C | 61% | 1018.7 hPa | 0 mm | - | - | - |
| 1777329620 | 27.78° C | 62% | 1018.5 hPa | 0 mm | - | - | - |
| 1777329019 | 27.78° C | 61% | 1018.5 hPa | 0 mm | - | - | - |
| 1777324219 | 29.44° C | 60% | 1018.1 hPa | 0 mm | - | - | - |
| 1777323619 | 28.89° C | 60% | 1018 hPa | 0 mm | - | - | - |
* Rain latest hour (hover to see other rain measurements)
** Current wind speed in m/s (hover to see current wind gust speed)